Tiempo atmosférico en la estación meteorológica de Fuente El Sol, Valladolid (755 m.)



Fecha
DESCASC
Temp. máxima en grados centígrados (hora)
DESCASC
Temp. mínima en grados centígrados (hora)
DESCASC
Temp. media en grados centígrados
DESCASC
Racha de viento máxima en m/sg (hora)
DESCASC
Velocidad máxima media en intervalos de 10 minutos(hora)
DESCASC
Precipitaciones diarias en mm
DESCASC
Precipitaciones de 00:00 a 06:00 en mm
DESCASC
Precipitaciones de 06:00 a 12:00 en mm
DESCASC
Precipitaciones de 12:00 a 18:00 en mm
DESCASC
Precipitaciones de 18:00 a 24:00 en mm
DESCASC
18-02-2018 11.7 (15:40) -4.6 (07:40) 3.5 9.72 (15:40) 6.39 (16:30) 0 0 0 0 0
17-02-2018 9.5 (15:30) 1.3 (23:59) 5.4 7.22 (16:20) 5.28 (13:10) 0 0 0 0 0
16-02-2018 18.8 (16:10) 8 (08:40) 13.4 5.83 (19:40) 4.17 (20:00) 0 0 0 0 0
15-02-2018 15.1 (15:20) 7.3 (00:00) 11.2 10 (13:00) 7.78 (13:10) 0 0 0 0 0
14-02-2018 9.5 (12:40) 5.4 (00:00) 7.5 13.61 (12:00) 10.28 (13:40) 0.2 0 0 0.2 0
13-02-2018 8.2 (17:10) -1.5 (-00:0) 3.3 18.33 (14:50) 13.89 (15:00) 0 0 0 0 0
12-02-2018 8.3 (15:20) -0.4 (00:00) 4 8.61 (14:20) 5.83 (00:50) 0.2 0.2 0 0 0
11-02-2018 12.8 (14:40) 3.5 (00:00) 8.2 13.89 (15:30) 10.56 (15:30) 0.4 0 0 0 0.4
10-02-2018 10 (16:50) -3.1 (-00:0) 3.5 7.22 (16:20) 4.17 (18:10) 0 0 0 0 0
09-02-2018 7.3 (16:30) -2.9 (-00:0) 2.2 7.22 (19:00) 5.28 (17:30) 0.2 0 0.2 0 0
08-02-2018 6.2 (17:50) -6 (-00:0) 0.1 5.83 (16:20) 3.61 (16:20) 0 0 0 0 0
07-02-2018 4.9 (14:40) -2.8 (-00:0) 1.1 11.11 (15:50) 7.5 (15:00) 0 0 0 0 0
06-02-2018 3.8 (16:30) -3.6 (-00:0) 0.1 11.67 (00:10) 8.33 (03:30) 0 0 0 0 0
05-02-2018 4.5 (15:30) -2.9 (-00:0) 0.8 14.44 (15:40) 10.28 (15:30) 0 0 0 0 0
04-02-2018 5.2 (17:10) -1.8 (-00:0) 1.7 9.72 (02:20) 6.94 (02:30) 1 0.6 0.2 0.2 0
03-02-2018 7.4 (14:20) -3.4 (-00:0) 2 13.89 (15:40) 9.17 (15:20) 0 0 0 0 0
02-02-2018 7.1 (16:50) -2.8 (-00:0) 2.1 7.78 (16:10) 5.56 (16:30) 0 0 0 0 0
01-02-2018 10 (15:20) -1.2 (-00:0) 4.4 15.56 (17:20) 12.5 (17:20) 0 0 0 0 0
31-01-2018 16.5 (14:50) -4.1 (-00:0) 6.2 4.17 (23:20) 3.33 (23:20) 0 0 0 0 0
30-01-2018 13.4 (16:10) -3 (-00:0) 5.2 4.44 (08:30) 2.78 (17:00) 0 0 0 0 0
29-01-2018 14.3 (17:20) -2.1 (-00:0) 6.1 3.89 (00:40) 2.78 (00:40) 0 0 0 0 0
28-01-2018 12.4 (16:50) -3.4 (-00:0) 4.5 13.06 (16:20) 9.17 (15:50) 0 0 0 0 0
27-01-2018 8.2 (13:00) -1.6 (-00:0) 3.3 11.67 (17:00) 7.5 (17:00) 0 0 0 0 0
26-01-2018 7.6 (14:40) -0.4 (00:00) 3.6 11.67 (11:40) 7.78 (14:10) 0 0 0 0 0
25-01-2018 7.6 (13:40) 1.9 (00:00) 4.7 10.83 (18:50) 8.06 (18:50) 10.4 0 5 2 3.4
24-01-2018 11.2 (16:20) 2 (00:00) 6.6 3.89 (00:20) 3.06 (20:50) 0 0 0 0 0
23-01-2018 5.3 (16:00) -1.4 (-00:0) 2 3.61 (18:30) 2.22 (17:00) 0 0 0 0 0
22-01-2018 12.7 (15:40) 0.6 (00:00) 6.6 5.83 (11:40) 4.44 (02:10) 0 0 0 0 0

Gráficas

Temp. máximas Temp. mínimas Temp. medias Precipitaciones Rachas de viento máximas Velocidades máximas media en intervalos de 10 minutos

Datos horarios

Fecha y hora oficial Temperatura (ºC) Velocidad del viento (km/h) Dirección del viento Racha (km/h) Dirección de racha Precipitación (mm) Presión (hPa) Tendencia (hPa) Humedad (%)
2018-02-20 23:00:00 2.9 13 Este 15 Nordeste 0 -- -- 86
2018-02-20 22:00:00 5.6 12 Nordeste 18 Nordeste 0 -- -- 76
2018-02-20 21:00:00 7.2 16 Nordeste 29 Nordeste 0 -- -- 69
2018-02-20 20:00:00 7.6 14 Nordeste 22 Nordeste 0 -- -- 69
2018-02-20 19:00:00 9.6 18 Nordeste 31 Nordeste 0 -- -- 60
2018-02-20 18:00:00 11.6 22 Nordeste 38 Nordeste 0 -- -- 52
2018-02-20 17:00:00 12.7 20 Norte 31 Norte 0 -- -- 48
2018-02-20 16:00:00 12.1 20 Norte 36 Norte 0 -- -- 50
2018-02-20 15:00:00 12.7 13 Norte 26 Norte 0 -- -- 54
2018-02-20 14:00:00 10.7 14 Norte 27 Norte 0 -- -- 63
2018-02-20 13:00:00 10.1 14 Norte 24 Nordeste 0 -- -- 62
2018-02-20 12:00:00 10.1 8 Nordeste 15 Nordeste 0 -- -- 66
2018-02-20 11:00:00 8.6 4 Norte 10 Norte 0 -- -- 71
2018-02-20 10:00:00 6.7 8 Oeste 12 Oeste 0 -- -- 83
2018-02-20 09:00:00 2.8 4 Sudoeste 9 Sur 0 -- -- 97
2018-02-20 08:00:00 0.8 5 Sudoeste 15 Sur 0 -- -- 96
2018-02-20 07:00:00 3.1 6 Este 13 Sur 0 -- -- 92
2018-02-20 06:00:00 2.9 2 Noroeste 4 Oeste 0 -- -- 96
2018-02-20 05:00:00 2 4 Sudoeste 6 Sur 0 -- -- 95
2018-02-20 04:00:00 4 2 Noroeste 6 Noroeste 0 -- -- 90
2018-02-20 03:00:00 2.9 3 Noroeste 8 Sudoeste 0 -- -- 93
2018-02-20 02:00:00 3.2 6 Sudoeste 8 Sudoeste 0 -- -- 92
2018-02-20 01:00:00 4.4 3 Sur 8 Oeste 0 -- -- 86
2018-02-20 00:00:00 4.8 4 Sudoeste 9 Noroeste 0 -- -- 85
2018-02-19 23:00:00 6.4 10 Norte 12 Noroeste 0 -- -- 78
2018-02-19 22:00:00 5.7 0 Calma 4 Nordeste 0 -- -- 79
2018-02-19 21:00:00 7.1 4 Noroeste 9 Oeste 0 -- -- 74
2018-02-19 20:00:00 8.6 5 Sur 9 Sur 0 -- -- 71
2018-02-19 19:00:00 10.1 0 Calma 8 Noroeste 0 -- -- 66
2018-02-19 18:00:00 11.1 2 Noroeste 12 Sudoeste 0 -- -- 58
2018-02-19 17:00:00 11.5 4 Noroeste 13 Noroeste 0 -- -- 57
2018-02-19 16:00:00 12.3 5 Norte 13 Noroeste 0 -- -- 54
2018-02-19 15:00:00 11.1 6 Norte 14 Noroeste 0 -- -- 60
2018-02-19 14:00:00 11 3 Norte 14 Noroeste 0 -- -- 61
2018-02-19 13:00:00 9.7 4 Norte 9 Oeste 0 -- -- 65
2018-02-19 12:00:00 9.3 3 Sudoeste 5 Norte 0 -- -- 69
2018-02-19 11:00:00 8.1 4 Noroeste 5 Oeste 0 -- -- 74
2018-02-19 10:00:00 5.9 0 Calma 4 Sur 0 -- -- 85
2018-02-19 09:00:00 3.4 0 Calma 3 Sudeste 0 -- -- 94
2018-02-19 08:00:00 2.6 0 Calma 3 Sur 0 -- -- 95
2018-02-19 07:00:00 2.1 2 Sur 5 Sudoeste 0 -- -- 95
2018-02-19 06:00:00 1.5 4 Sudoeste 6 Sudoeste 0 -- -- 96
2018-02-19 05:00:00 1.9 2 Sudoeste 4 Sur 0 -- -- 93
2018-02-19 04:00:00 2.9 3 Sudoeste 5 Sudoeste 0 -- -- 92
2018-02-19 03:00:00 3.3 2 Sudoeste 5 Sur 0 -- -- 91
2018-02-19 02:00:00 3.4 5 Sudoeste 6 Sudoeste 0 -- -- 90
2018-02-19 01:00:00 3.6 0 Calma 3 Norte 0 -- -- 87
2018-02-19 00:00:00 5.1 3 Norte 8 Norte 0 -- -- 79
2018-02-18 23:00:00 6.1 6 Nordeste 17 Nordeste 0 -- -- 74
2018-02-18 22:00:00 6.4 6 Norte 18 Norte 0 -- -- 73
2018-02-18 21:00:00 6.6 5 Nordeste 10 Nordeste 0 -- -- 75
2018-02-18 20:00:00 6.6 5 Nordeste 11 Nordeste 0 -- -- 77
2018-02-18 19:00:00 8.9 9 Nordeste 19 Norte 0 -- -- 67
2018-02-18 18:00:00 10.6 13 Nordeste 33 Norte 0 -- -- 60
2018-02-18 17:00:00 11.2 19 Norte 31 Norte 0 -- -- 57
2018-02-18 16:00:00 10.7 21 Norte 35 Norte 0 -- -- 58
2018-02-18 15:00:00 11 13 Norte 22 Norte 0 -- -- 52
2018-02-18 14:00:00 9.6 13 Norte 21 Nordeste 0 -- -- 56
2018-02-18 13:00:00 7.3 10 Norte 18 Norte 0 -- -- 64
2018-02-18 12:00:00 5.1 8 Norte 14 Norte 0 -- -- 73
2018-02-18 11:00:00 4 4 Este 7 Este 0 -- -- 75
2018-02-18 10:00:00 4.9 2 Noroeste 5 Noroeste 0 -- -- 75
2018-02-18 09:00:00 -1.3 2 Sur 5 Sudoeste 0 -- -- 92
2018-02-18 08:00:00 -4.6 2 Sudoeste 4 Sudoeste 0 -- -- 98
2018-02-18 07:00:00 -4.1 4 Sudoeste 6 Sur 0 -- -- 98
2018-02-18 06:00:00 -3.5 3 Sudoeste 8 Sudoeste 0 -- -- 97
2018-02-18 05:00:00 -3.7 6 Sudoeste 6 Sudoeste 0 -- -- 97
2018-02-18 04:00:00 -2.6 0 Calma 6 Norte 0 -- -- 96
2018-02-18 03:00:00 -1.6 4 Norte 9 Nordeste 0 -- -- 95
2018-02-18 02:00:00 1.1 6 Nordeste 9 Nordeste 0 -- -- 88
2018-02-18 01:00:00 0.3 3 Norte 12 Norte 0 -- -- 90
2018-02-18 00:00:00 1.3 8 Norte 12 Norte 0 -- -- 87
2018-02-17 23:00:00 1.7 3 Norte 13 Norte 0 -- -- 87
2018-02-17 22:00:00 3.3 11 Norte 15 Nordeste 0 -- -- 80
2018-02-17 21:00:00 4.4 7 Nordeste 16 Norte 0 -- -- 77
2018-02-17 20:00:00 6.1 10 Nordeste 17 Nordeste 0 -- -- 71
2018-02-17 19:00:00 8.4 9 Norte 19 Norte 0 -- -- 63
2018-02-17 18:00:00 9.1 15 Nordeste 25 Norte 0 -- -- 60
2018-02-17 17:00:00 9.2 14 Norte 26 Norte 0 -- -- 67
2018-02-17 16:00:00 9.1 18 Norte 25 Norte 0 -- -- 70
2018-02-17 15:00:00 9.2 13 Norte 19 Nordeste 0 -- -- 70
2018-02-17 14:00:00 9.1 13 Nordeste 24 Nordeste 0 -- -- 75
2018-02-17 13:00:00 8.3 19 Nordeste 25 Nordeste 0 -- -- 81
2018-02-17 12:00:00 8.3 10 Norte 15 Noroeste 0 -- -- 85
2018-02-17 11:00:00 8.1 8 Noroeste 11 Oeste 0 -- -- 90
2018-02-17 10:00:00 6.9 8 Oeste 12 Oeste 0 -- -- 93
2018-02-17 09:00:00 6.1 4 Sudoeste 11 Sudoeste 0 -- -- 95
2018-02-17 08:00:00 5.3 9 Sudoeste 12 Sudoeste 0 -- -- 96
2018-02-17 07:00:00 4.9 6 Sudoeste 10 Sudoeste 0 -- -- 96
2018-02-17 06:00:00 4.2 6 Sur 10 Sudoeste 0 -- -- 96
2018-02-17 05:00:00 4.4 8 Sudoeste 14 Sudoeste 0 -- -- 97
2018-02-17 04:00:00 3.5 10 Sudoeste 15 Sudoeste 0 -- -- 97
2018-02-17 03:00:00 4.7 10 Sudoeste 14 Sudoeste 0 -- -- 96
2018-02-17 02:00:00 5.4 8 Sudoeste 15 Sudoeste 0 -- -- 96
2018-02-17 01:00:00 6.4 12 Sudoeste 17 Sudoeste 0 -- -- 92
2018-02-17 00:00:00 8.1 12 Sudoeste 16 Sudoeste 0 -- -- 87
2018-02-16 23:00:00 9 11 Sudoeste 17 Oeste 0 -- -- 87
2018-02-16 22:00:00 10.6 8 Oeste 14 Sur 0 -- -- 83
2018-02-16 21:00:00 8.7 3 Oeste 17 Oeste 0 -- -- 88
2018-02-16 20:00:00 11.5 15 Oeste 21 Noroeste 0 -- -- 77
2018-02-16 19:00:00 13.4 11 Noroeste 14 Noroeste 0 -- -- 71
2018-02-16 18:00:00 15.3 10 Noroeste 14 Noroeste 0 -- -- 59
2018-02-16 17:00:00 18 9 Oeste 13 Oeste 0 -- -- 52
2018-02-16 16:00:00 17.4 4 Nordeste 11 Noroeste 0 -- -- 53
2018-02-16 15:00:00 17.7 3 Sudoeste 15 Sudeste 0 -- -- 54
2018-02-16 14:00:00 16 8 Sudeste 15 Este 0 -- -- 61
2018-02-16 13:00:00 14.5 10 Sudeste 20 Sudeste 0 -- -- 65
2018-02-16 12:00:00 13.2 12 Sur 17 Sudeste 0 -- -- 73
2018-02-16 11:00:00 11 10 Sur 15 Sur 0 -- -- 83
2018-02-16 10:00:00 10.8 11 Sur 16 Sur 0 -- -- 84
2018-02-16 09:00:00 8.1 5 Sudeste 8 Sur 0 -- -- 94
2018-02-16 08:00:00 8.1 7 Sur 13 Sur 0 -- -- 94
2018-02-16 07:00:00 8.3 8 Sudoeste 13 Sudoeste 0 -- -- 92
2018-02-16 06:00:00 8.2 10 Sudoeste 13 Sur 0 -- -- 92
2018-02-16 05:00:00 8.3 6 Sur 9 Sudoeste 0 -- -- 93
2018-02-16 04:00:00 8.5 6 Sur 11 Sudoeste 0 -- -- 92
2018-02-16 03:00:00 9 3 Sur 14 Sur 0 -- -- 90
2018-02-16 02:00:00 9.2 12 Sur 15 Sur 0 -- -- 90
2018-02-16 01:00:00 9.2 11 Sur 19 Sur 0 -- -- 89
2018-02-16 00:00:00 9.5 13 Sudoeste 20 Sudoeste 0 -- -- 89
2018-02-15 23:00:00 9.7 11 Sudoeste 15 Sur 0 -- -- 89
2018-02-15 22:00:00 10.1 8 Sudoeste 10 Sudoeste 0 -- -- 88
2018-02-15 21:00:00 10.9 6 Sudoeste 10 Sudoeste 0 -- -- 84
2018-02-15 20:00:00 11.5 9 Sudoeste 12 Sudoeste 0 -- -- 82
2018-02-15 19:00:00 12.6 9 Sudoeste 19 Sudoeste 0 -- -- 78
2018-02-15 18:00:00 13.6 10 Sudoeste 22 Oeste 0 -- -- 74
2018-02-15 17:00:00 13.9 16 Sudoeste 32 Sudoeste 0 -- -- 72
2018-02-15 16:00:00 14.9 24 Sudoeste 36 Sudoeste 0 -- -- 68
2018-02-15 15:00:00 14.5 19 Sudoeste 27 Sudoeste 0 -- -- 66
2018-02-15 14:00:00 14 17 Sudoeste 36 Sudoeste 0 -- -- 68
2018-02-15 13:00:00 14.3 27 Sudoeste 36 Sudoeste 0 -- -- 66
2018-02-15 12:00:00 13.3 17 Sudoeste 27 Sudoeste 0 -- -- 72
2018-02-15 11:00:00 11.8 22 Sudoeste 29 Sudoeste 0 -- -- 75
2018-02-15 10:00:00 10.6 18 Sudoeste 27 Sudoeste 0 -- -- 81
2018-02-15 09:00:00 8.5 15 Sudoeste 23 Sur 0 -- -- 88
2018-02-15 08:00:00 7.9 15 Sur 22 Sur 0 -- -- 91
2018-02-15 07:00:00 8.6 19 Sur 28 Sur 0 -- -- 91
2018-02-15 06:00:00 8.5 17 Sur 24 Sudoeste 0 -- -- 92
2018-02-15 05:00:00 8.6 12 Sudoeste 21 Sudoeste 0 -- -- 91
2018-02-15 04:00:00 8.6 12 Sudoeste 24 Sudoeste 0 -- -- 91
2018-02-15 03:00:00 8.3 15 Sur 26 Sudoeste 0 -- -- 92
2018-02-15 02:00:00 8.3 18 Sudoeste 27 Sudoeste 0 -- -- 91
2018-02-15 01:00:00 8.1 18 Sudoeste 28 Sudoeste 0 -- -- 91
2018-02-15 00:00:00 8 15 Sudoeste 27 Sudoeste 0 -- -- 90
2018-02-14 23:00:00 8.1 17 Sudoeste 26 Sudoeste 0 -- -- 90
2018-02-14 22:00:00 8.2 17 Sudoeste 28 Sudoeste 0 -- -- 88
2018-02-14 21:00:00 8.2 17 Sudoeste 36 Sudoeste 0 -- -- 89
2018-02-14 20:00:00 8.3 23 Sudoeste 37 Sudoeste 0 -- -- 88
2018-02-14 19:00:00 8.5 25 Sudoeste 38 Sudoeste 0 -- -- 88
2018-02-14 18:00:00 8.8 29 Sudoeste 42 Sudoeste 0 -- -- 86
2018-02-14 17:00:00 9 30 Sudoeste 43 Sudoeste 0 -- -- 85
2018-02-14 16:00:00 9.2 34 Sudoeste 45 Sudoeste 0 -- -- 86
2018-02-14 15:00:00 8.7 33 Sudoeste 45 Sudoeste 0 -- -- 87
2018-02-14 14:00:00 8.7 30 Sudoeste 46 Sudoeste 0.2 -- -- 89
2018-02-14 13:00:00 8.9 33 Sudoeste 49 Sudoeste 0 -- -- 86
2018-02-14 12:00:00 8.4 35 Sudoeste 49 Sudoeste 0 -- -- 86
2018-02-14 11:00:00 8.1 32 Sudoeste 42 Sudoeste 0 -- -- 83
2018-02-14 10:00:00 7.3 28 Sudoeste 36 Sudoeste 0 -- -- 87
2018-02-14 09:00:00 6.4 21 Sudoeste 33 Sudoeste 0 -- -- 90
2018-02-14 08:00:00 5.8 22 Sudoeste 34 Sudoeste 0 -- -- 92
2018-02-14 07:00:00 5.7 18 Sudoeste 27 Sudoeste 0 -- -- 91
2018-02-14 06:00:00 5.4 14 Sudoeste 33 Sudoeste 0 -- -- 94
2018-02-14 05:00:00 5.9 22 Sudoeste 35 Sudoeste 0 -- -- 88
2018-02-14 04:00:00 6 24 Sudoeste 39 Sudoeste 0 -- -- 88
2018-02-14 03:00:00 6 21 Sudoeste 37 Sudoeste 0 -- -- 89
2018-02-14 02:00:00 6.1 27 Sudoeste 40 Sudoeste 0 -- -- 89
2018-02-14 01:00:00 6.3 28 Sudoeste 41 Sudoeste 0 -- -- 88
2018-02-14 00:00:00 6.1 32 Sudoeste 44 Sudoeste 0 -- -- 88
2018-02-13 23:00:00 5.9 26 Sudoeste 41 Sudoeste 0 -- -- 90
2018-02-13 22:00:00 5.8 28 Sudoeste 48 Sudoeste 0 -- -- 87
2018-02-13 21:00:00 5.3 28 Sudoeste 42 Sudoeste 0 -- -- 88
2018-02-13 20:00:00 5.5 31 Sudoeste 59 Sudoeste 0 -- -- 87
2018-02-13 19:00:00 6.1 32 Sudoeste 48 Sudoeste 0 -- -- 77
2018-02-13 18:00:00 6.4 35 Sudoeste 53 Sudoeste 0 -- -- 70
2018-02-13 17:00:00 8.1 39 Sudoeste 57 Sudoeste 0 -- -- 73
2018-02-13 16:00:00 7.8 42 Sudoeste 66 Sudoeste 0 -- -- 73
2018-02-13 15:00:00 8 50 Sudoeste 66 Sudoeste 0 -- -- 69
2018-02-13 14:00:00 7.6 46 Sudoeste 64 Sudoeste 0 -- -- 68
2018-02-13 13:00:00 7.3 39 Sudoeste 54 Sudoeste 0 -- -- 67
2018-02-13 12:00:00 5.3 32 Sudoeste 44 Sudoeste 0 -- -- 70
2018-02-13 11:00:00 2.5 26 Sudoeste 40 Sudoeste 0 -- -- 77
2018-02-13 10:00:00 1.2 21 Sudoeste 33 Sudoeste 0 -- -- 78
2018-02-13 09:00:00 0.3 21 Sudoeste 30 Sudoeste 0 -- -- 83
2018-02-13 08:00:00 -1 18 Sudoeste 27 Sudoeste 0 -- -- 87
2018-02-13 07:00:00 -1.3 16 Sudoeste 25 Sur 0 -- -- 89
2018-02-13 06:00:00 -1.2 18 Sudoeste 24 Sudoeste 0 -- -- 88
2018-02-13 05:00:00 -1.2 15 Sudoeste 22 Sudoeste 0 -- -- 83
2018-02-13 04:00:00 -0.9 14 Sudoeste 21 Sudoeste 0 -- -- 82
2018-02-13 03:00:00 -1.3 13 Sudoeste 19 Sudoeste 0 -- -- 85
2018-02-13 02:00:00 -1.3 12 Sudoeste 17 Sudoeste 0 -- -- 83
2018-02-13 01:00:00 -1.5 8 Sudoeste 14 Sudoeste 0 -- -- 84
2018-02-13 00:00:00 -0.4 12 Sudoeste 19 Oeste 0 -- -- 80
2018-02-12 23:00:00 1.2 15 Oeste 20 Oeste 0 -- -- 70
2018-02-12 22:00:00 0.6 15 Sudoeste 19 Sudoeste 0 -- -- 73
2018-02-12 21:00:00 1.6 8 Sudoeste 12 Sudoeste 0 -- -- 67
2018-02-12 20:00:00 1.7 3 Sudoeste 6 Sudoeste 0 -- -- 78
2018-02-12 19:00:00 4.3 0 Calma 11 Oeste 0 -- -- 55
2018-02-12 18:00:00 7 11 Oeste 21 Oeste 0 -- -- 41
2018-02-12 17:00:00 7.7 17 Oeste 28 Oeste 0 -- -- 40
2018-02-12 16:00:00 8 15 Noroeste 29 Noroeste 0 -- -- 40
2018-02-12 15:00:00 8.1 18 Noroeste 31 Oeste 0 -- -- 39
2018-02-12 14:00:00 8.2 14 Noroeste 26 Noroeste 0 -- -- 47
2018-02-12 13:00:00 5.5 11 Noroeste 23 Noroeste 0 -- -- 57
2018-02-12 12:00:00 5.2 14 Noroeste 21 Noroeste 0 -- -- 61
2018-02-12 11:00:00 5 12 Noroeste 18 Noroeste 0 -- -- 64
2018-02-12 10:00:00 3.6 11 Oeste 14 Noroeste 0 -- -- 69
2018-02-12 09:00:00 1.3 2 Sudoeste 15 Noroeste 0 -- -- 81
2018-02-12 08:00:00 1.2 12 Noroeste 20 Noroeste 0 -- -- 86
2018-02-12 07:00:00 2.3 15 Noroeste 21 Noroeste 0 -- -- 81
2018-02-12 06:00:00 2.7 11 Noroeste 14 Noroeste 0 -- -- 83
2018-02-12 05:00:00 3.4 7 Noroeste 16 Noroeste 0 -- -- 84
2018-02-12 04:00:00 3.9 9 Noroeste 22 Noroeste 0 -- -- 87
2018-02-12 03:00:00 4.7 13 Noroeste 21 Noroeste 0 -- -- 85
2018-02-12 02:00:00 5.4 15 Noroeste 23 Noroeste 0 -- -- 88
2018-02-12 01:00:00 6.5 20 Noroeste 28 Oeste 0.2 -- -- 84
2018-02-12 00:00:00 7.4 16 Oeste 30 Sudoeste 0 -- -- 95
2018-02-11 23:00:00 7.8 18 Oeste 34 Sudoeste 0 -- -- 94
2018-02-11 22:00:00 8.5 28 Oeste 37 Oeste 0 -- -- 86
2018-02-11 21:00:00 8.8 24 Sudoeste 33 Sudoeste 0 -- -- 84
2018-02-11 20:00:00 9.2 20 Sudoeste 38 Sudoeste 0 -- -- 86
2018-02-11 19:00:00 9.9 24 Sudoeste 35 Sudoeste 0.4 -- -- 82
2018-02-11 18:00:00 10.1 29 Oeste 45 Sudoeste 0 -- -- 80
2018-02-11 17:00:00 11.7 33 Oeste 48 Oeste 0 -- -- 68
2018-02-11 16:00:00 12 35 Oeste 50 Sudoeste 0 -- -- 69
2018-02-11 15:00:00 12.8 31 Sudoeste 49 Sudoeste 0 -- -- 68
2018-02-11 14:00:00 12 35 Sudoeste 45 Sudoeste 0 -- -- 72
2018-02-11 13:00:00 11.9 32 Sudoeste 42 Sudoeste 0 -- -- 74
2018-02-11 12:00:00 9.2 29 Sudoeste 40 Sudoeste 0 -- -- 85
2018-02-11 11:00:00 7.2 22 Sudoeste 33 Oeste 0 -- -- 93
2018-02-11 10:00:00 6.7 23 Sudoeste 32 Oeste 0 -- -- 92
2018-02-11 09:00:00 5.6 18 Sudoeste 32 Sudoeste 0 -- -- 94
2018-02-11 08:00:00 4.9 19 Sudoeste 38 Sudoeste 0 -- -- 93
2018-02-11 07:00:00 4.8 25 Sudoeste 35 Sudoeste 0 -- -- 93
2018-02-11 06:00:00 4.1 22 Sudoeste 33 Sudoeste 0 -- -- 93
2018-02-11 05:00:00 3.5 21 Sudoeste 29 Sudoeste 0 -- -- 92
2018-02-11 04:00:00 4.3 14 Sudoeste 32 Sudoeste 0 -- -- 87
2018-02-11 03:00:00 4.5 20 Sudoeste 29 Sudoeste 0 -- -- 85
2018-02-11 02:00:00 4.7 18 Sudoeste 26 Sudoeste 0 -- -- 82
2018-02-11 01:00:00 4.8 14 Sudoeste 19 Sudoeste 0 -- -- 79
2018-02-11 00:00:00 4.8 13 Sudoeste 18 Sudoeste 0 -- -- 75
2018-02-10 23:00:00 5 12 Sudoeste 16 Sudoeste 0 -- -- 72
2018-02-10 22:00:00 5.1 13 Sudoeste 17 Sudoeste 0 -- -- 71
2018-02-10 21:00:00 4.5 11 Sudoeste 13 Sudoeste 0 -- -- 70
2018-02-10 20:00:00 5.4 10 Sudoeste 13 Sudoeste 0 -- -- 66
2018-02-10 19:00:00 6.1 4 Noroeste 23 Noroeste 0 -- -- 59
2018-02-10 18:00:00 9.1 15 Noroeste 21 Noroeste 0 -- -- 45
2018-02-10 17:00:00 9.7 11 Oeste 26 Oeste 0 -- -- 46
2018-02-10 16:00:00 7.9 14 Noroeste 24 Oeste 0 -- -- 49
2018-02-10 15:00:00 9 9 Noroeste 23 Noroeste 0 -- -- 48
2018-02-10 14:00:00 7.1 13 Noroeste 23 Noroeste 0 -- -- 54
2018-02-10 13:00:00 7.5 6 Oeste 13 Noroeste 0 -- -- 56
2018-02-10 12:00:00 5.2 6 Noroeste 13 Noroeste 0 -- -- 66
2018-02-10 11:00:00 3.8 7 Noroeste 14 Oeste 0 -- -- 74
2018-02-10 10:00:00 0.8 6 Oeste 9 Oeste 0 -- -- 95
2018-02-10 09:00:00 -1.8 0 Calma -- -- 0 -- -- 98
2018-02-10 08:00:00 -3 0 Calma -- -- 0 -- -- 100
2018-02-10 07:00:00 -2.6 0 Calma 9 Oeste 0 -- -- 100
2018-02-10 06:00:00 -2.1 7 Oeste 10 Sudoeste 0 -- -- 100
2018-02-10 05:00:00 -2.8 3 Sudoeste -- -- 0 -- -- 100
2018-02-10 04:00:00 -1.9 4 Oeste 5 Oeste 0 -- -- 100
2018-02-10 03:00:00 -1.1 0 Calma 9 Oeste 0 -- -- 100
2018-02-10 02:00:00 -0.9 3 Nordeste 5 Nordeste 0 -- -- 99
2018-02-10 01:00:00 -1.3 0 Calma 3 Norte 0 -- -- 98
2018-02-10 00:00:00 -0.7 2 Norte 7 Este 0 -- -- 97
2018-02-09 23:00:00 0.4 7 Este 20 Este 0 -- -- 97
2018-02-09 22:00:00 1.9 14 Este 22 Nordeste 0 -- -- 95
2018-02-09 21:00:00 3.8 13 Oeste 22 Sudoeste 0 -- -- 90
2018-02-09 20:00:00 3.9 16 Sudoeste 26 Sudoeste 0 -- -- 92
2018-02-09 19:00:00 4.6 19 Sudoeste 26 Sudoeste 0 -- -- 89
2018-02-09 18:00:00 5.4 19 Sudoeste 26 Sudoeste 0 -- -- 84
2018-02-09 17:00:00 7.2 13 Sudoeste 19 Sudoeste 0 -- -- 75
2018-02-09 16:00:00 6.4 5 Sudoeste 13 Sudoeste 0 -- -- 76
2018-02-09 15:00:00 5 8 Oeste 18 Sudoeste 0 -- -- 82
2018-02-09 14:00:00 3.9 14 Sudoeste 19 Sudoeste 0 -- -- 87
2018-02-09 13:00:00 2.7 12 Sudoeste 19 Sudoeste 0 -- -- 90
2018-02-09 12:00:00 1.9 13 Sudoeste 18 Sudoeste 0 -- -- 89
2018-02-09 11:00:00 0.8 11 Sudoeste 17 Sudoeste 0.2 -- -- 93
2018-02-09 10:00:00 -0.2 8 Sudoeste 21 Oeste 0 -- -- 93
2018-02-09 09:00:00 0 12 Sudoeste 19 Sudoeste 0 -- -- 77
2018-02-09 08:00:00 -1 6 Sudoeste 9 Sudoeste 0 -- -- 80
2018-02-09 07:00:00 -1.9 2 Este 4 Sudeste 0 -- -- 86
2018-02-09 06:00:00 -2.2 3 Sudeste 13 Sudoeste 0 -- -- 82
2018-02-09 05:00:00 -2.6 11 Sur 20 Sudoeste 0 -- -- 82
2018-02-09 04:00:00 -2.5 15 Sudoeste 21 Sudoeste 0 -- -- 80
2018-02-09 03:00:00 -2.2 14 Sudoeste 22 Sudoeste 0 -- -- 79
2018-02-09 02:00:00 -2.4 14 Sudoeste 19 Sur 0 -- -- 82
2018-02-09 01:00:00 -2.3 13 Sudoeste 18 Sudoeste 0 -- -- 83
2018-02-09 00:00:00 -2.5 11 Sudoeste 17 Sudoeste 0 -- -- 89
2018-02-08 23:00:00 -2.4 8 Sudoeste 13 Sudoeste 0 -- -- 89
2018-02-08 22:00:00 -2.7 6 Sudoeste 10 Sudoeste 0 -- -- 85
2018-02-08 21:00:00 -1.9 2 Sur 4 Sur 0 -- -- 78
2018-02-08 20:00:00 0.2 2 Sur 5 Oeste 0 -- -- 68
2018-02-08 19:00:00 2.1 2 Nordeste 7 Oeste 0 -- -- 58
2018-02-08 18:00:00 4.8 4 Noroeste 15 Norte 0 -- -- 48
2018-02-08 17:00:00 4.8 5 Oeste 21 Noroeste 0 -- -- 46
2018-02-08 16:00:00 5 3 Noroeste 17 Norte 0 -- -- 46
2018-02-08 15:00:00 4.2 9 Noroeste 16 Noroeste 0 -- -- 50
2018-02-08 14:00:00 5.6 7 Noroeste 18 Noroeste 0 -- -- 48
2018-02-08 13:00:00 4.2 6 Oeste 12 Oeste 0 -- -- 56
2018-02-08 12:00:00 3.1 3 Sur 9 Sudoeste 0 -- -- 67
2018-02-08 11:00:00 2.2 4 Oeste 6 Oeste 0 -- -- 68
2018-02-08 10:00:00 0.4 4 Oeste 7 Oeste 0 -- -- 78
2018-02-08 09:00:00 -4.1 3 Sudoeste 7 Oeste 0 -- -- 93
2018-02-08 08:00:00 -5.5 5 Oeste 5 Oeste 0 -- -- 96
2018-02-08 07:00:00 -5.8 4 Oeste 5 Sur 0 -- -- 96
2018-02-08 06:00:00 -5.3 2 Sudoeste 3 Sur 0 -- -- 95
2018-02-08 05:00:00 -4 3 Sudoeste 4 Sudoeste 0 -- -- 92
2018-02-08 04:00:00 -5.5 3 Oeste 7 Sudoeste 0 -- -- 96
2018-02-08 03:00:00 -4.5 0 Calma 5 Oeste 0 -- -- 95
2018-02-08 02:00:00 -4.3 0 Calma 7 Norte 0 -- -- 92
2018-02-08 01:00:00 -2.9 4 Norte 10 Nordeste 0 -- -- 86
2018-02-08 00:00:00 -1.7 8 Norte 14 Norte 0 -- -- 80
2018-02-07 23:00:00 -0.3 9 Norte 18 Nordeste 0 -- -- 76
2018-02-07 22:00:00 -0.2 7 Nordeste 10 Nordeste 0 -- -- 74
2018-02-07 21:00:00 0.4 3 Norte 6 Nordeste 0 -- -- 75
2018-02-07 20:00:00 0.1 4 Nordeste 10 Nordeste 0 -- -- 75
2018-02-07 19:00:00 0.7 4 Norte 13 Norte 0 -- -- 67
2018-02-07 18:00:00 2.5 11 Norte 24 Nordeste 0 -- -- 58
2018-02-07 17:00:00 3.4 18 Nordeste 35 Nordeste 0 -- -- 54
2018-02-07 16:00:00 4.5 22 Nordeste 40 Norte 0 -- -- 48
2018-02-07 15:00:00 4.2 27 Nordeste 40 Norte 0 -- -- 50
2018-02-07 14:00:00 4.4 18 Nordeste 35 Norte 0 -- -- 54
2018-02-07 13:00:00 3.8 23 Norte 34 Norte 0 -- -- 58
2018-02-07 12:00:00 3.2 13 Norte 30 Norte 0 -- -- 65
2018-02-07 11:00:00 2.2 4 Noroeste 8 Noroeste 0 -- -- 73
2018-02-07 10:00:00 -0.5 4 Noroeste 8 Oeste 0 -- -- 82
2018-02-07 09:00:00 -2.5 5 Noroeste 10 Oeste 0 -- -- 91
2018-02-07 08:00:00 -2.5 5 Oeste 10 Oeste 0 -- -- 91
2018-02-07 07:00:00 -1.9 7 Oeste 10 Oeste 0 -- -- 90
2018-02-07 06:00:00 -1.7 5 Noroeste 13 Oeste 0 -- -- 89
2018-02-07 05:00:00 -1.4 5 Noroeste 9 Oeste 0 -- -- 93
2018-02-07 04:00:00 -1.3 0 Calma 9 Oeste 0 -- -- 92
2018-02-07 03:00:00 -1.4 5 Oeste 6 Oeste 0 -- -- 93
2018-02-07 02:00:00 -1.9 2 Oeste 4 Oeste 0 -- -- 95
2018-02-07 01:00:00 -2.3 0 Calma 4 Nordeste 0 -- -- 93
2018-02-07 00:00:00 -2 2 Nordeste 9 Nordeste 0 -- -- 88
2018-02-06 23:00:00 -0.1 6 Nordeste 11 Nordeste 0 -- -- 78
2018-02-06 22:00:00 -0.8 5 Norte 11 Norte 0 -- -- 81
2018-02-06 21:00:00 0.6 8 Noroeste 14 Noroeste 0 -- -- 75
2018-02-06 20:00:00 1.6 13 Oeste 19 Noroeste 0 -- -- 70
2018-02-06 19:00:00 0.9 8 Noroeste 12 Norte 0 -- -- 79
2018-02-06 18:00:00 2.2 8 Norte 28 Norte 0 -- -- 64
2018-02-06 17:00:00 3.4 16 Norte 24 Norte 0 -- -- 58
2018-02-06 16:00:00 2.9 14 Noroeste 21 Noroeste 0 -- -- 64
2018-02-06 15:00:00 2.2 13 Norte 25 Norte 0 -- -- 67
2018-02-06 14:00:00 1.7 19 Norte 30 Norte 0 -- -- 70
2018-02-06 13:00:00 2.9 18 Norte 28 Norte 0 -- -- 64
2018-02-06 12:00:00 2 13 Norte 22 Norte 0 -- -- 70
2018-02-06 11:00:00 1.7 9 Noroeste 14 Noroeste 0 -- -- 72
2018-02-06 10:00:00 0.9 8 Noroeste 12 Oeste 0 -- -- 74
2018-02-06 09:00:00 -2 10 Noroeste 12 Noroeste 0 -- -- 85
2018-02-06 08:00:00 -3.2 6 Noroeste 13 Norte 0 -- -- 89
2018-02-06 07:00:00 -1.3 13 Norte 24 Norte 0 -- -- 79
2018-02-06 06:00:00 -0.7 17 Norte 25 Norte 0 -- -- 80
2018-02-06 05:00:00 -0.4 15 Norte 29 Norte 0 -- -- 80
2018-02-06 04:00:00 -0.1 22 Norte 41 Norte 0 -- -- 79
2018-02-06 03:00:00 0.4 24 Norte 39 Norte 0 -- -- 81
2018-02-06 02:00:00 0.4 19 Norte 33 Norte 0 -- -- 83
2018-02-06 01:00:00 0.6 19 Norte 42 Norte 0 -- -- 81
2018-02-06 00:00:00 0.7 25 Norte 41 Norte 0 -- -- 82
2018-02-05 23:00:00 1 23 Norte 33 Norte 0 -- -- 80
2018-02-05 22:00:00 0.4 17 Norte 44 Norte 0 -- -- 89
2018-02-05 21:00:00 0.1 22 Norte 47 Norte 0 -- -- 94
2018-02-05 20:00:00 1.6 28 Norte 45 Norte 0 -- -- 77
2018-02-05 19:00:00 1.4 22 Norte 46 Norte 0 -- -- 86
2018-02-05 18:00:00 1.5 26 Norte 34 Noroeste 0 -- -- 85
2018-02-05 17:00:00 1.2 26 Norte 51 Norte 0 -- -- 92
2018-02-05 16:00:00 4.1 37 Norte 52 Norte 0 -- -- 67
2018-02-05 15:00:00 3.7 37 Norte 51 Norte 0 -- -- 72
2018-02-05 14:00:00 3.9 28 Norte 44 Norte 0 -- -- 71
2018-02-05 13:00:00 3.1 25 Norte 42 Norte 0 -- -- 78
2018-02-05 12:00:00 2.9 25 Norte 37 Norte 0 -- -- 80
2018-02-05 11:00:00 2.1 31 Norte 40 Norte 0 -- -- 85
2018-02-05 10:00:00 0.8 17 Norte 27 Norte 0 -- -- 90
2018-02-05 09:00:00 -0.9 9 Noroeste 17 Noroeste 0 -- -- 96
2018-02-05 08:00:00 -1.7 9 Noroeste 16 Oeste 0 -- -- 97
2018-02-05 07:00:00 -1.9 6 Oeste 12 Noroeste 0 -- -- 97
2018-02-05 06:00:00 -2.7 11 Noroeste 17 Noroeste 0 -- -- 97
2018-02-05 05:00:00 -1.7 14 Noroeste 18 Noroeste 0 -- -- 97
2018-02-05 04:00:00 -2.2 9 Noroeste 10 Noroeste 0 -- -- 98
2018-02-05 03:00:00 -2.5 0 Calma 8 Noroeste 0 -- -- 97
2018-02-05 02:00:00 -2.4 6 Noroeste 9 Noroeste 0 -- -- 96
2018-02-05 01:00:00 -2 6 Noroeste 9 Noroeste 0 -- -- 95
2018-02-05 00:00:00 -1.7 3 Noroeste 9 Norte 0 -- -- 94
2018-02-04 23:00:00 -0.2 7 Norte 10 Norte 0 -- -- 89
2018-02-04 22:00:00 0.3 6 Norte 16 Norte 0 -- -- 86
2018-02-04 21:00:00 0.8 12 Norte 17 Norte 0 -- -- 84
2018-02-04 20:00:00 1.8 12 Norte 21 Norte 0 -- -- 78
2018-02-04 19:00:00 2.9 14 Norte 32 Norte 0 -- -- 71
2018-02-04 18:00:00 4.8 21 Norte 35 Norte 0.2 -- -- 64
2018-02-04 17:00:00 5.1 19 Norte 30 Norte 0 -- -- 66
2018-02-04 16:00:00 5 18 Norte 31 Norte 0 -- -- 71
2018-02-04 15:00:00 5.1 21 Norte 31 Norte 0 -- -- 70
2018-02-04 14:00:00 3.5 14 Norte 22 Noroeste 0 -- -- 80
2018-02-04 13:00:00 2.6 13 Noroeste 20 Noroeste 0 -- -- 86
2018-02-04 12:00:00 1.2 15 Noroeste 20 Noroeste 0 -- -- 94
2018-02-04 11:00:00 0.6 9 Noroeste 14 Noroeste 0.2 -- -- 96
2018-02-04 10:00:00 -0.2 9 Noroeste 15 Oeste 0 -- -- 98
2018-02-04 09:00:00 -0.8 12 Noroeste 23 Noroeste 0 -- -- 98
2018-02-04 08:00:00 0 13 Noroeste 19 Noroeste 0 -- -- 89
2018-02-04 07:00:00 0 14 Noroeste 22 Noroeste 0 -- -- 87
2018-02-04 06:00:00 0.8 14 Noroeste 22 Noroeste 0 -- -- 88
2018-02-04 05:00:00 1.5 11 Oeste 16 Oeste 0 -- -- 94
2018-02-04 04:00:00 2.2 10 Oeste 28 Noroeste 0 -- -- 95
2018-02-04 03:00:00 2.8 23 Oeste 35 Oeste 0.2 -- -- 94
2018-02-04 02:00:00 3.4 21 Oeste 29 Oeste 0.4 -- -- 94
2018-02-04 01:00:00 3.8 20 Oeste 32 Oeste 0 -- -- 93
2018-02-04 00:00:00 4.3 24 Oeste 32 Oeste 0 -- -- 90
2018-02-03 23:00:00 4.3 19 Sudoeste 30 Sudoeste 0 -- -- 94
2018-02-03 22:00:00 4.8 22 Sudoeste 30 Oeste 0 -- -- 94
2018-02-03 21:00:00 4.7 25 Sudoeste 40 Sudoeste 0 -- -- 93
2018-02-03 20:00:00 5.3 27 Sudoeste 45 Sudoeste 0 -- -- 88
2018-02-03 19:00:00 6.2 19 Sudoeste 26 Sudoeste 0 -- -- 80
2018-02-03 18:00:00 6.6 21 Sudoeste 36 Sudoeste 0 -- -- 75
2018-02-03 17:00:00 6.4 28 Sudoeste 40 Sudoeste 0 -- -- 74
2018-02-03 16:00:00 6.3 31 Sudoeste 50 Oeste 0 -- -- 72
2018-02-03 15:00:00 6.9 27 Sudoeste 42 Sudoeste 0 -- -- 67
2018-02-03 14:00:00 7 32 Sudoeste 40 Oeste 0 -- -- 62
2018-02-03 13:00:00 5.4 27 Sudoeste 35 Sudoeste 0 -- -- 65
2018-02-03 12:00:00 4 23 Sudoeste 35 Sudoeste 0 -- -- 68
2018-02-03 11:00:00 2.1 23 Sudoeste 30 Sudoeste 0 -- -- 74
2018-02-03 10:00:00 0.6 21 Sudoeste 29 Sudoeste 0 -- -- 78
2018-02-03 09:00:00 -0.9 17 Sudoeste 25 Sudoeste 0 -- -- 82
2018-02-03 08:00:00 -1.8 16 Sudoeste 27 Sudoeste 0 -- -- 83
2018-02-03 07:00:00 -1.4 17 Sudoeste 25 Sudoeste 0 -- -- 82
2018-02-03 06:00:00 -1.1 17 Sudoeste 21 Sudoeste 0 -- -- 82
2018-02-03 05:00:00 -2.4 8 Sudoeste 17 Sudoeste 0 -- -- 85
2018-02-03 04:00:00 -2.1 11 Sudoeste 16 Sudoeste 0 -- -- 83
2018-02-03 03:00:00 -2.3 7 Sudoeste 10 Sur 0 -- -- 86
2018-02-03 02:00:00 -3 4 Sur 6 Sur 0 -- -- 89
2018-02-03 01:00:00 -2.3 5 Sur 13 Oeste 0 -- -- 86
2018-02-03 00:00:00 -1.9 6 Oeste 14 Noroeste 0 -- -- 83
2018-02-02 23:00:00 -1.6 13 Noroeste 15 Oeste 0 -- -- 82
2018-02-02 22:00:00 -0.5 12 Noroeste 19 Noroeste 0 -- -- 75
2018-02-02 21:00:00 0.9 14 Noroeste 22 Noroeste 0 -- -- 70
2018-02-02 20:00:00 1.7 17 Noroeste 27 Noroeste 0 -- -- 69
2018-02-02 19:00:00 2 10 Noroeste 16 Noroeste 0 -- -- 70
2018-02-02 18:00:00 5.4 17 Noroeste 26 Oeste 0 -- -- 54
2018-02-02 17:00:00 5.8 15 Noroeste 28 Noroeste 0 -- -- 50
2018-02-02 16:00:00 6.4 13 Noroeste 24 Noroeste 0 -- -- 48
2018-02-02 15:00:00 4.3 12 Noroeste 26 Oeste 0 -- -- 60
2018-02-02 14:00:00 6.1 11 Noroeste 23 Noroeste 0 -- -- 58
2018-02-02 13:00:00 4.2 8 Noroeste 21 Noroeste 0 -- -- 67
2018-02-02 12:00:00 3.6 14 Noroeste 22 Noroeste 0 -- -- 71
2018-02-02 11:00:00 2.2 10 Noroeste 22 Noroeste 0 -- -- 78
2018-02-02 10:00:00 0.6 14 Oeste 18 Oeste 0 -- -- 85
2018-02-02 09:00:00 -1.9 10 Oeste 14 Oeste 0 -- -- 94
2018-02-02 08:00:00 -2.7 11 Oeste 20 Oeste 0 -- -- 96
2018-02-02 07:00:00 -2.1 14 Oeste 19 Oeste 0 -- -- 96
2018-02-02 06:00:00 -1.4 12 Oeste 15 Oeste 0 -- -- 95
2018-02-02 05:00:00 -2.1 10 Oeste 15 Oeste 0 -- -- 96
2018-02-02 04:00:00 -2.6 6 Oeste 16 Noroeste 0 -- -- 98
2018-02-02 03:00:00 -2 12 Noroeste 21 Noroeste 0 -- -- 94
2018-02-02 02:00:00 -1.7 11 Oeste 21 Noroeste 0 -- -- 94
2018-02-02 01:00:00 -1.7 14 Oeste 17 Oeste 0 -- -- 93
2018-02-02 00:00:00 -1.2 8 Noroeste 19 Norte 0 -- -- 88
2018-02-01 23:00:00 0 13 Noroeste 19 Norte 0 -- -- 83
2018-02-01 22:00:00 0.5 4 Norte 16 Norte 0 -- -- 82
2018-02-01 21:00:00 1.7 13 Norte 30 Norte 0 -- -- 77
2018-02-01 20:00:00 2.2 23 Noroeste 32 Noroeste 0 -- -- 73
2018-02-01 19:00:00 3.6 19 Noroeste 28 Noroeste 0 -- -- 69
2018-02-01 18:00:00 4.5 27 Norte 56 Norte 0 -- -- 73
2018-02-01 17:00:00 7.6 36 Noroeste 46 Noroeste 0 -- -- 52
2018-02-01 16:00:00 9.7 30 Noroeste 45 Noroeste 0 -- -- 45
2018-02-01 15:00:00 9.8 25 Noroeste 34 Noroeste 0 -- -- 46
2018-02-01 14:00:00 7.2 22 Noroeste 31 Noroeste 0 -- -- 63
2018-02-01 13:00:00 8 18 Noroeste 32 Noroeste 0 -- -- 63
2018-02-01 12:00:00 7.6 19 Noroeste 34 Noroeste 0 -- -- 69
2018-02-01 11:00:00 5.9 14 Oeste 21 Sudoeste 0 -- -- 81
2018-02-01 10:00:00 3.2 14 Sudoeste 21 Sudoeste 0 -- -- 88
2018-02-01 09:00:00 1.9 13 Sudoeste 19 Sudoeste 0 -- -- 91
2018-02-01 08:00:00 1.8 14 Sudoeste 21 Sudoeste 0 -- -- 89
2018-02-01 07:00:00 1.2 12 Sudoeste 15 Sudoeste 0 -- -- 90
2018-02-01 06:00:00 1.2 14 Sudoeste 17 Sudoeste 0 -- -- 89
2018-02-01 05:00:00 1.8 12 Sudoeste 14 Sudoeste 0 -- -- 86
2018-02-01 04:00:00 2.3 10 Sudoeste 15 Sudoeste 0 -- -- 85
2018-02-01 03:00:00 3.1 15 Sudoeste 22 Sudoeste 0 -- -- 79
2018-02-01 02:00:00 3.6 17 Sudoeste 20 Sudoeste 0 -- -- 73
2018-02-01 01:00:00 2.7 11 Sudoeste 16 Sudoeste 0 -- -- 78
2018-02-01 00:00:00 1.7 3 Sur 15 Sur 0 -- -- 84
2018-01-31 23:00:00 2.2 9 Sur 12 Sur 0 -- -- 83
2018-01-31 22:00:00 1.8 4 Sudoeste 8 Sur 0 -- -- 86
2018-01-31 21:00:00 2.2 4 Sur 5 Sur 0 -- -- 85
2018-01-31 20:00:00 4 0 Calma 3 Sudeste 0 -- -- 79
2018-01-31 19:00:00 7.4 0 Calma 4 Noroeste 0 -- -- 66
2018-01-31 18:00:00 15.3 2 Oeste 8 Sudoeste 0 -- -- 43
2018-01-31 17:00:00 14.2 4 Sur 11 Oeste 0 -- -- 36
2018-01-31 16:00:00 15.2 4 Noroeste 10 Oeste 0 -- -- 41
2018-01-31 15:00:00 15.2 4 Noroeste 6 Oeste 0 -- -- 43
2018-01-31 14:00:00 13.8 0 Calma 4 Nordeste 0 -- -- 47
2018-01-31 13:00:00 10.5 3 Este 9 Oeste 0 -- -- 56
2018-01-31 12:00:00 8.6 2 Sudoeste 9 Sur 0 -- -- 64
2018-01-31 11:00:00 4 5 Sudeste 8 Sudeste 0 -- -- 80
2018-01-31 10:00:00 2 2 Sudoeste 5 Sur 0 -- -- 83
2018-01-31 09:00:00 -2.4 4 Sur -- -- 0 -- -- 97
2018-01-31 08:00:00 -3.5 0 Calma 4 Noroeste 0 -- -- 100
2018-01-31 07:00:00 -3.6 0 Calma 4 Sur 0 -- -- 99
2018-01-31 06:00:00 -3.5 2 Noroeste 3 Noroeste 0 -- -- 99
2018-01-31 05:00:00 -3 0 Calma 4 Noroeste 0 -- -- 99
2018-01-31 04:00:00 -2.8 0 Calma 3 Este 0 -- -- 98
2018-01-31 03:00:00 -1.9 2 Este 5 Noroeste 0 -- -- 97
2018-01-31 02:00:00 -0.7 3 Sudeste 6 Sur 0 -- -- 93
2018-01-31 01:00:00 -0.5 0 Calma 9 Sur 0 -- -- 97
2018-01-31 00:00:00 0.7 8 Sur 10 Sur 0 -- -- 92
2018-01-30 23:00:00 1 2 Sudoeste 12 Sur 0 -- -- 92
2018-01-30 22:00:00 1.5 5 Sur 6 Sur 0 -- -- 94
2018-01-30 21:00:00 2.2 0 Calma 3 Noroeste 0 -- -- 91
2018-01-30 20:00:00 4.3 4 Norte 9 Norte 0 -- -- 83
2018-01-30 19:00:00 8.4 9 Norte 11 Norte 0 -- -- 66
2018-01-30 18:00:00 11.2 9 Norte 14 Norte 0 -- -- 53
2018-01-30 17:00:00 13 10 Norte 14 Norte 0 -- -- 46
2018-01-30 16:00:00 13.2 8 Nordeste 14 Norte 0 -- -- 49
2018-01-30 15:00:00 12.6 9 Norte 15 Norte 0 -- -- 57
2018-01-30 14:00:00 11.1 8 Norte 13 Norte 0 -- -- 62
2018-01-30 13:00:00 8.5 7 Norte 11 Noroeste 0 -- -- 73
2018-01-30 12:00:00 9.7 0 Calma 6 Este 0 -- -- 65
2018-01-30 11:00:00 4.4 3 Sudeste 5 Sudeste 0 -- -- 82
2018-01-30 10:00:00 1.5 2 Nordeste 11 Norte 0 -- -- 94
2018-01-30 09:00:00 -2.7 6 Norte 16 Noroeste 0 -- -- 100
2018-01-30 08:00:00 -0.5 2 Sur 6 Sur 0 -- -- 100
2018-01-30 07:00:00 -2.2 3 Sur 6 Sudeste 0 -- -- 100
2018-01-30 06:00:00 -2.2 2 Sudeste 3 Sudeste 0 -- -- 100
2018-01-30 05:00:00 -2 0 Calma 4 Sudeste 0 -- -- 100
2018-01-30 04:00:00 -1.5 0 Calma 4 Oeste 0 -- -- 100
2018-01-30 03:00:00 -1.2 3 Oeste 10 Sudeste 0 -- -- 99
2018-01-30 02:00:00 -0.5 4 Oeste 14 Sudeste 0 -- -- 98
2018-01-30 01:00:00 -0.3 4 Sudoeste 8 Sur 0 -- -- 98
2018-01-30 00:00:00 0.3 4 Sur 6 Sur 0 -- -- 98
2018-01-29 23:00:00 0.7 3 Oeste 5 Sur 0 -- -- 97
2018-01-29 22:00:00 1.2 2 Sudoeste 4 Sudoeste 0 -- -- 95
2018-01-29 21:00:00 3.1 0 Calma 4 Noroeste 0 -- -- 91
2018-01-29 20:00:00 5.2 3 Oeste 8 Noroeste 0 -- -- 88
2018-01-29 19:00:00 6.7 6 Noroeste 7 Oeste 0 -- -- 85
2018-01-29 18:00:00 11.9 6 Noroeste 9 Noroeste 0 -- -- 65
2018-01-29 17:00:00 13.8 4 Norte 9 Norte 0 -- -- 52
2018-01-29 16:00:00 13.3 5 Nordeste 10 Nordeste 0 -- -- 54
2018-01-29 15:00:00 12.6 5 Nordeste 10 Norte 0 -- -- 55
2018-01-29 14:00:00 10.7 7 Norte 10 Norte 0 -- -- 66
2018-01-29 13:00:00 8.7 7 Norte 11 Norte 0 -- -- 73
2018-01-29 12:00:00 6 6 Norte 13 Noroeste 0 -- -- 82
2018-01-29 11:00:00 3.8 7 Noroeste 9 Noroeste 0 -- -- 85
2018-01-29 10:00:00 3 2 Oeste 4 Noroeste 0 -- -- 87
2018-01-29 09:00:00 -0.8 0 Calma 5 Sudoeste 0 -- -- 97
2018-01-29 08:00:00 -1.6 0 Calma 7 Sudoeste 0 -- -- 99
2018-01-29 07:00:00 -1.6 0 Calma 7 Sudoeste 0 -- -- 98
2018-01-29 06:00:00 -0.9 2 Noroeste 7 Norte 0 -- -- 99
2018-01-29 05:00:00 -0.8 5 Noroeste 6 Norte 0 -- -- 98
2018-01-29 04:00:00 0.2 3 Nordeste 8 Norte 0 -- -- 95
2018-01-29 03:00:00 1.4 6 Norte 12 Norte 0 -- -- 94
2018-01-29 02:00:00 2.5 8 Nordeste 13 Nordeste 0 -- -- 89
2018-01-29 01:00:00 2.9 7 Norte 14 Este 0 -- -- 85
2018-01-29 00:00:00 3.9 7 Nordeste 14 Nordeste 0 -- -- 87
2018-01-28 23:00:00 3.8 15 Este 19 Este 0 -- -- 87
2018-01-28 22:00:00 4.4 12 Este 17 Este 0 -- -- 85
2018-01-28 21:00:00 5.1 3 Norte 16 Nordeste 0 -- -- 85
2018-01-28 20:00:00 7.3 15 Nordeste 29 Nordeste 0 -- -- 76
2018-01-28 19:00:00 8.4 16 Nordeste 38 Nordeste 0 -- -- 73
2018-01-28 18:00:00 10.1 28 Nordeste 39 Nordeste 0 -- -- 67
2018-01-28 17:00:00 12.2 25 Nordeste 47 Nordeste 0 -- -- 59
2018-01-28 16:00:00 11.9 29 Nordeste 45 Nordeste 0 -- -- 59
2018-01-28 15:00:00 11.9 25 Nordeste 38 Nordeste 0 -- -- 60
2018-01-28 14:00:00 10.6 19 Norte 29 Norte 0 -- -- 63
2018-01-28 13:00:00 6.3 12 Norte 19 Norte 0 -- -- 75
2018-01-28 12:00:00 3.6 8 Norte 12 Norte 0 -- -- 74
2018-01-28 11:00:00 1.9 5 Norte 8 Norte 0 -- -- 83
2018-01-28 10:00:00 2.2 0 Calma 6 Sudeste 0 -- -- 84
2018-01-28 09:00:00 -2 0 Calma 5 Noroeste 0 -- -- 96
2018-01-28 08:00:00 -3.1 3 Noroeste 9 Noroeste 0 -- -- 98
2018-01-28 07:00:00 -3.1 7 Noroeste 8 Noroeste 0 -- -- 98
2018-01-28 06:00:00 -3.2 5 Oeste 6 Oeste 0 -- -- 98
2018-01-28 05:00:00 -3 3 Sudoeste 4 Sudoeste 0 -- -- 97
2018-01-28 04:00:00 -1.5 5 Norte 8 Norte 0 -- -- 94
2018-01-28 03:00:00 -1 4 Nordeste 12 Norte 0 -- -- 91
2018-01-28 02:00:00 -0.9 3 Nordeste 11 Norte 0 -- -- 91
2018-01-28 01:00:00 -1 4 Norte 7 Nordeste 0 -- -- 97
2018-01-28 00:00:00 -0.8 3 Noroeste 8 Nordeste 0 -- -- 94
2018-01-27 23:00:00 0.1 6 Nordeste 14 Nordeste 0 -- -- 87
2018-01-27 22:00:00 2 9 Norte 18 Norte 0 -- -- 79
2018-01-27 21:00:00 3.2 13 Norte 26 Norte 0 -- -- 75
2018-01-27 20:00:00 3.3 13 Norte 28 Norte 0 -- -- 80
2018-01-27 19:00:00 4.6 14 Norte 29 Norte 0 -- -- 77
2018-01-27 18:00:00 6.4 23 Norte 37 Norte 0 -- -- 66
2018-01-27 17:00:00 6.8 27 Norte 42 Norte 0 -- -- 68
2018-01-27 16:00:00 7.6 21 Norte 34 Norte 0 -- -- 66
2018-01-27 15:00:00 7.1 11 Norte 29 Norte 0 -- -- 70
2018-01-27 14:00:00 6.7 13 Norte 24 Norte 0 -- -- 70
2018-01-27 13:00:00 8.2 4 Noroeste 17 Noroeste 0 -- -- 65
2018-01-27 12:00:00 5.3 12 Noroeste 15 Oeste 0 -- -- 79
2018-01-27 11:00:00 3.6 6 Oeste 9 Oeste 0 -- -- 83
2018-01-27 10:00:00 0.4 6 Oeste 10 Oeste 0 -- -- 93
2018-01-27 09:00:00 -1.4 7 Sudoeste 11 Sudoeste 0 -- -- 98
2018-01-27 08:00:00 -1.1 10 Sudoeste 14 Sudoeste 0 -- -- 97
2018-01-27 07:00:00 -0.7 9 Sudoeste 10 Sudoeste 0 -- -- 97
2018-01-27 06:00:00 0.9 6 Sudoeste 9 Oeste 0 -- -- 91
2018-01-27 05:00:00 0.8 2 Sur 10 Oeste 0 -- -- 93
2018-01-27 04:00:00 0.7 10 Oeste 14 Oeste 0 -- -- 92
2018-01-27 03:00:00 0.2 8 Oeste 12 Oeste 0 -- -- 94
2018-01-27 02:00:00 -0.5 8 Oeste 11 Sudoeste 0 -- -- 96
2018-01-27 01:00:00 -0.5 10 Sudoeste 13 Oeste 0 -- -- 97
2018-01-27 00:00:00 -0.3 7 Sudoeste 9 Sudoeste 0 -- -- 96
2018-01-26 23:00:00 0.6 5 Noroeste 13 Norte 0 -- -- 90
2018-01-26 22:00:00 0.8 6 Noroeste 18 Noroeste 0 -- -- 91
2018-01-26 21:00:00 2.1 15 Noroeste 19 Noroeste 0 -- -- 85
2018-01-26 20:00:00 2.4 10 Noroeste 21 Noroeste 0 -- -- 87
2018-01-26 19:00:00 3.6 16 Noroeste 22 Noroeste 0 -- -- 82
2018-01-26 18:00:00 5.6 20 Noroeste 39 Noroeste 0 -- -- 71
2018-01-26 17:00:00 6.9 23 Noroeste 38 Noroeste 0 -- -- 70
2018-01-26 16:00:00 7.2 15 Noroeste 30 Oeste 0 -- -- 70
2018-01-26 15:00:00 6.9 23 Noroeste 36 Noroeste 0 -- -- 69
2018-01-26 14:00:00 7.3 26 Noroeste 35 Oeste 0 -- -- 69
2018-01-26 13:00:00 6.5 27 Oeste 36 Oeste 0 -- -- 72
2018-01-26 12:00:00 5.6 25 Oeste 42 Oeste 0 -- -- 77
2018-01-26 11:00:00 3.4 15 Oeste 29 Oeste 0 -- -- 84
2018-01-26 10:00:00 1.6 19 Oeste 28 Oeste 0 -- -- 90
2018-01-26 09:00:00 0.9 19 Oeste 30 Oeste 0 -- -- 92
2018-01-26 08:00:00 0.4 20 Oeste 30 Oeste 0 -- -- 95
2018-01-26 07:00:00 0.3 22 Oeste 28 Oeste 0 -- -- 95
2018-01-26 06:00:00 0.3 18 Oeste 27 Oeste 0 -- -- 95
2018-01-26 05:00:00 0.4 24 Oeste 31 Oeste 0 -- -- 95
2018-01-26 04:00:00 0.2 19 Oeste 26 Oeste 0 -- -- 95
2018-01-26 03:00:00 0.3 14 Oeste 21 Oeste 0 -- -- 97
2018-01-26 02:00:00 1 13 Oeste 18 Oeste 0 -- -- 96
2018-01-26 01:00:00 1.9 10 Oeste 14 Oeste 0 -- -- 96
2018-01-26 00:00:00 2.3 6 Oeste 11 Oeste 0 -- -- 93
2018-01-25 23:00:00 2.8 12 Noroeste 26 Oeste 0 -- -- 90
2018-01-25 22:00:00 3.4 14 Oeste 35 Noroeste 0.4 -- -- 94
2018-01-25 21:00:00 2.7 13 Noroeste 28 Noroeste 0.8 -- -- 98
2018-01-25 20:00:00 2 26 Noroeste 37 Oeste 2 -- -- 95
2018-01-25 19:00:00 3.6 28 Oeste 39 Noroeste 0.2 -- -- 95
2018-01-25 18:00:00 6.6 15 Oeste 25 Oeste 0 -- -- 85
2018-01-25 17:00:00 7.1 19 Oeste 31 Oeste 0 -- -- 86
2018-01-25 16:00:00 6.6 20 Sudoeste 35 Oeste 0.6 -- -- 91
2018-01-25 15:00:00 6.6 15 Oeste 30 Oeste 1 -- -- 96
2018-01-25 14:00:00 6.4 26 Oeste 36 Sudoeste 0.2 -- -- 93
2018-01-25 13:00:00 7.1 21 Sudoeste 31 Sur 0.2 -- -- 96
2018-01-25 12:00:00 6.7 21 Sur 30 Sur 0.8 -- -- 95
2018-01-25 11:00:00 5.7 16 Sur 24 Sur 3.6 -- -- 100
2018-01-25 10:00:00 5.5 18 Sudoeste 28 Sudoeste 0.4 -- -- 97
2018-01-25 09:00:00 4.5 9 Sudeste 15 Sur 0.2 -- -- 98
2018-01-25 08:00:00 4.1 8 Sudoeste 15 Sudoeste 0 -- -- 94
2018-01-25 07:00:00 2.7 8 Sudoeste 11 Sur 0 -- -- 98
2018-01-25 06:00:00 2.6 3 Sudoeste 13 Sur 0 -- -- 96
2018-01-25 05:00:00 3.2 10 Sur 13 Sur 0 -- -- 95
2018-01-25 04:00:00 2.4 7 Sudeste 10 Sudeste 0 -- -- 96
2018-01-25 03:00:00 2.6 6 Sur 10 Sudeste 0 -- -- 96
2018-01-25 02:00:00 2.6 3 Sur 9 Sudeste 0 -- -- 97
2018-01-25 01:00:00 2.7 6 Sur 9 Sur 0 -- -- 96
2018-01-25 00:00:00 2.8 2 Sur 8 Sur 0 -- -- 96
2018-01-24 23:00:00 2.9 3 Sur 6 Sur 0 -- -- 96
2018-01-24 22:00:00 3.6 4 Sudoeste 12 Sur 0 -- -- 96
2018-01-24 21:00:00 3.9 10 Sur 12 Sur 0 -- -- 95
2018-01-24 20:00:00 4.4 7 Sur 10 Sudeste 0 -- -- 96
2018-01-24 19:00:00 5.4 7 Sudeste 8 Sur 0 -- -- 93
2018-01-24 18:00:00 7 4 Este 5 Sudeste 0 -- -- 85
2018-01-24 17:00:00 10.7 0 Calma 7 Oeste 0 -- -- 68
2018-01-24 16:00:00 9.9 2 Sudoeste 9 Noroeste 0 -- -- 72
2018-01-24 15:00:00 6.2 5 Oeste 12 Oeste 0 -- -- 86
2018-01-24 14:00:00 5.4 3 Este 7 Sur 0 -- -- 92
2018-01-24 13:00:00 4.3 4 Oeste 9 Oeste 0 -- -- 96
2018-01-24 12:00:00 2.5 3 Noroeste 6 Noroeste 0 -- -- 99
2018-01-24 11:00:00 2.3 2 Nordeste 7 Este 0 -- -- 100
2018-01-24 10:00:00 2.1 0 Calma 12 Este 0 -- -- 100
2018-01-24 09:00:00 2.8 5 Este 10 Este 0 -- -- 100
2018-01-24 08:00:00 3 5 Este 12 Este 0 -- -- 100
2018-01-24 07:00:00 3 2 Nordeste 9 Nordeste 0 -- -- 100
2018-01-24 06:00:00 3.3 3 Nordeste 8 Este 0 -- -- 100
2018-01-24 05:00:00 3.5 4 Este 11 Este 0 -- -- 100
2018-01-24 04:00:00 4 6 Este 13 Este 0 -- -- 99
2018-01-24 03:00:00 4.5 3 Sudeste 7 Este 0 -- -- 98
2018-01-24 02:00:00 4.7 2 Nordeste 12 Este 0 -- -- 98
2018-01-24 01:00:00 4.7 0 Calma 14 Nordeste 0 -- -- 98
2018-01-24 00:00:00 4.9 5 Norte 12 Nordeste 0 -- -- 98
2018-01-23 23:00:00 4.8 5 Este 13 Este 0 -- -- 99
2018-01-23 22:00:00 5 5 Este 9 Nordeste 0 -- -- 98
2018-01-23 21:00:00 5 5 Nordeste 9 Este 0 -- -- 98
2018-01-23 20:00:00 5 6 Este 12 Nordeste 0 -- -- 98
2018-01-23 19:00:00 5 5 Este 13 Nordeste 0 -- -- 99
2018-01-23 18:00:00 5.1 8 Nordeste 12 Nordeste 0 -- -- 100
2018-01-23 17:00:00 5.2 8 Nordeste 13 Nordeste 0 -- -- 100
2018-01-23 16:00:00 5.3 4 Norte 13 Norte 0 -- -- 100
2018-01-23 15:00:00 4.9 5 Nordeste 11 Norte 0 -- -- 99
2018-01-23 14:00:00 4.6 6 Este 9 Nordeste 0 -- -- 100
2018-01-23 13:00:00 4.2 4 Nordeste 10 Este 0 -- -- 100
2018-01-23 12:00:00 4.1 4 Nordeste 7 Nordeste 0 -- -- 100
2018-01-23 11:00:00 2.6 0 Calma 6 Sur 0 -- -- 100
2018-01-23 10:00:00 1.3 3 Sudeste 4 Sudeste 0 -- -- 100
2018-01-23 09:00:00 0.5 0 Calma 3 Este 0 -- -- 100
2018-01-23 08:00:00 -0.1 0 Calma 3 Este 0 -- -- 100
2018-01-23 07:00:00 -0.2 0 Calma 2 Sudeste 0 -- -- 100
2018-01-23 06:00:00 -0.6 0 Calma 2 Sudoeste 0 -- -- 100
2018-01-23 05:00:00 -1.3 0 Calma 3 Sudoeste 0 -- -- 100
2018-01-23 04:00:00 -1.2 0 Calma 3 Norte 0 -- -- 100
2018-01-23 03:00:00 -1.1 0 Calma 5 Noroeste 0 -- -- 100
2018-01-23 02:00:00 -0.7 0 Calma 3 Oeste 0 -- -- 100
2018-01-23 01:00:00 0.2 3 Sudeste 6 Sudeste 0 -- -- 100
2018-01-23 00:00:00 0.6 0 Calma 4 Nordeste 0 -- -- 100
2018-01-22 23:00:00 2 4 Nordeste 5 Nordeste 0 -- -- 98
2018-01-22 22:00:00 2.9 5 Este 9 Este 0 -- -- 98
2018-01-22 21:00:00 3.7 5 Este 9 Nordeste 0 -- -- 96
2018-01-22 20:00:00 4.6 4 Este 9 Este 0 -- -- 94
2018-01-22 19:00:00 6.6 6 Nordeste 9 Nordeste 0 -- -- 88
2018-01-22 18:00:00 10 5 Norte 9 Nordeste 0 -- -- 75
2018-01-22 17:00:00 11.2 5 Nordeste 9 Este 0 -- -- 71
2018-01-22 16:00:00 11.2 5 Sudeste 12 Sudoeste 0 -- -- 72
2018-01-22 15:00:00 10.1 6 Oeste 17 Sudoeste 0 -- -- 77
2018-01-22 14:00:00 8.5 9 Sudoeste 18 Sudoeste 0 -- -- 82
2018-01-22 13:00:00 7.9 10 Oeste 19 Sudoeste 0 -- -- 84
2018-01-22 12:00:00 7.6 12 Sudoeste 21 Sudoeste 0 -- -- 87
2018-01-22 11:00:00 7.4 13 Sudoeste 18 Sudoeste 0 -- -- 89
2018-01-22 10:00:00 7.1 11 Sudoeste 20 Sudoeste 0 -- -- 91
2018-01-22 09:00:00 6.9 7 Sudoeste 12 Sudoeste 0 -- -- 94
2018-01-22 08:00:00 7 8 Sudoeste 17 Sudoeste 0 -- -- 93
2018-01-22 07:00:00 7 10 Sudoeste 15 Sudoeste 0 -- -- 94
2018-01-22 06:00:00 7 9 Sur 16 Sudoeste 0 -- -- 94
2018-01-22 05:00:00 6.6 7 Sudoeste 10 Sudoeste 0 -- -- 96
2018-01-22 04:00:00 6.5 9 Sur 14 Sur 0 -- -- 95
2018-01-22 03:00:00 6 9 Sur 20 Sur 0 -- -- 96
2018-01-22 02:00:00 5.7 15 Sur 20 Sur 0 -- -- 95
2018-01-22 01:00:00 5.3 9 Sur 14 Sur 0 -- -- 97
2018-01-22 00:00:00 5.9 10 Sur 15 Sur 0 -- -- 93